Time;durP1;ratioP1;P1;durP2;ratioP2;P2;SDS_P1;SDS_P2;PMS_P1;PMS_P2;Temp;Humidity;BMP_temperature;BMP_pressure;BME280_temperature;BME280_humidity;BME280_pressure;Samples;Min_cycle;Max_cycle;Signal;HPM_P1;HPM_P2
2022/01/30 00:00:48;;;;;;;3.63;3.33;;;;;;;;;;4955049;29;20177;-77
2022/01/30 00:03:18;;;;;;;4.00;3.60;;;;;;;;;;4938657;28;20197;-77
2022/01/30 00:05:44;;;;;;;4.27;3.87;;;;;;;;;;4953086;28;20186;-77
2022/01/30 00:08:10;;;;;;;4.40;4.00;;;;;;;;;;4932982;29;20212;-76
2022/01/30 00:10:39;;;;;;;5.87;4.60;;;;;;;;;;4948693;28;20607;-78
2022/01/30 00:13:08;;;;;;;5.03;4.57;;;;;;;;;;4952991;28;20240;-77
2022/01/30 00:18:39;;;;;;;5.83;4.80;;;;;;;;;;4953354;28;20177;-76
2022/01/30 00:21:12;;;;;;;7.30;5.17;;;;;;;;;;4955388;28;20237;-78
2022/01/30 00:23:55;;;;;;;5.37;4.87;;;;;;;;;;4950951;28;20201;-78
2022/01/30 00:26:27;;;;;;;4.87;4.37;;;;;;;;;;4951503;28;20261;-77
2022/01/30 00:28:54;;;;;;;4.87;4.40;;;;;;;;;;4952240;28;20260;-76
2022/01/30 00:31:21;;;;;;;5.17;4.43;;;;;;;;;;4953061;28;20602;-76
2022/01/30 00:33:48;;;;;;;4.37;3.97;;;;;;;;;;4951221;29;20295;-77
2022/01/30 00:36:14;;;;;;;5.93;4.33;;;;;;;;;;4938973;29;20193;-76
2022/01/30 00:38:41;;;;;;;8.77;4.70;;;;;;;;;;4952969;28;20245;-77
2022/01/30 00:41:08;;;;;;;4.93;4.43;;;;;;;;;;4951876;29;20248;-76
2022/01/30 00:43:36;;;;;;;5.63;4.27;;;;;;;;;;4942710;28;20215;-77
2022/01/30 00:46:03;;;;;;;4.80;4.30;;;;;;;;;;4945863;28;20192;-76
2022/01/30 00:48:29;;;;;;;4.60;4.17;;;;;;;;;;4947277;28;20220;-78
2022/01/30 00:50:56;;;;;;;5.03;4.53;;;;;;;;;;4948235;29;20177;-77
2022/01/30 00:53:22;;;;;;;5.80;4.50;;;;;;;;;;4951027;28;20704;-77
2022/01/30 00:55:49;;;;;;;4.53;4.00;;;;;;;;;;4945004;28;20184;-77
2022/01/30 00:58:15;;;;;;;4.70;3.73;;;;;;;;;;4947825;28;20217;-77
2022/01/30 01:00:41;;;;;;;4.60;4.20;;;;;;;;;;4950266;28;20196;-77
2022/01/30 01:03:07;;;;;;;4.90;4.37;;;;;;;;;;4948994;28;20217;-77
2022/01/30 01:05:35;;;;;;;6.40;4.40;;;;;;;;;;4944878;28;20182;-77
2022/01/30 01:08:12;;;;;;;5.47;4.40;;;;;;;;;;4961914;28;20946;-77
2022/01/30 01:23:58;;;;;;;4.57;3.70;;;;;;;;;;4942643;28;20613;-77
2022/01/30 01:26:25;;;;;;;4.17;3.60;;;;;;;;;;4950328;28;20248;-77
2022/01/30 01:28:53;;;;;;;5.00;4.03;;;;;;;;;;4956935;29;20185;-77
2022/01/30 01:31:22;;;;;;;5.63;4.43;;;;;;;;;;4941284;29;20183;-78
2022/01/30 01:36:34;;;;;;;10.03;6.53;;;;;;;;;;4954885;29;20185;-77
2022/01/30 01:39:00;;;;;;;6.03;5.00;;;;;;;;;;4956299;28;20212;-77
2022/01/30 01:41:28;;;;;;;8.37;5.53;;;;;;;;;;4955919;29;20223;-78
2022/01/30 01:43:55;;;;;;;9.83;6.17;;;;;;;;;;4953997;28;20205;-77
2022/01/30 01:46:26;;;;;;;8.87;6.50;;;;;;;;;;4956205;28;20216;-77
2022/01/30 01:48:53;;;;;;;10.23;7.97;;;;;;;;;;4955804;29;20192;-77
2022/01/30 01:51:22;;;;;;;8.27;6.43;;;;;;;;;;4956407;28;20272;-77
2022/01/30 01:53:49;;;;;;;12.20;8.50;;;;;;;;;;4954362;28;20306;-77
2022/01/30 01:56:16;;;;;;;10.30;8.13;;;;;;;;;;4961555;28;20188;-76
2022/01/30 01:58:46;;;;;;;9.90;8.00;;;;;;;;;;4952825;28;20248;-75
2022/01/30 02:01:31;;;;;;;10.47;7.07;;;;;;;;;;4956525;29;20189;-77
2022/01/30 02:03:57;;;;;;;11.07;8.03;;;;;;;;;;4954799;28;20203;-77
2022/01/30 02:06:26;;;;;;;7.00;6.10;;;;;;;;;;4947163;28;20567;-76
2022/01/30 02:09:04;;;;;;;7.87;6.17;;;;;;;;;;4932356;29;20193;-76
2022/01/30 02:24:47;;;;;;;8.80;6.13;;;;;;;;;;4967642;28;20213;-76
2022/01/30 02:27:19;;;;;;;6.00;4.90;;;;;;;;;;4966599;28;20651;-77
2022/01/30 02:29:46;;;;;;;6.43;4.57;;;;;;;;;;4957389;28;20181;-76
2022/01/30 02:32:12;;;;;;;5.50;4.50;;;;;;;;;;4954973;29;20209;-76
2022/01/30 02:34:39;;;;;;;5.03;4.20;;;;;;;;;;4952325;29;20201;-76
2022/01/30 02:37:05;;;;;;;5.73;4.33;;;;;;;;;;4935711;29;20658;-76
2022/01/30 02:39:32;;;;;;;6.50;4.20;;;;;;;;;;4936160;29;20161;-75
2022/01/30 02:41:59;;;;;;;4.83;3.50;;;;;;;;;;4955148;29;20232;-77
2022/01/30 02:44:40;;;;;;;6.20;3.87;;;;;;;;;;4959261;28;20237;-75
2022/01/30 02:47:20;;;;;;;7.27;4.67;;;;;;;;;;4954760;29;20185;-75
2022/01/30 02:50:09;;;;;;;6.00;3.80;;;;;;;;;;4956665;28;20213;-77
2022/01/30 02:52:35;;;;;;;5.80;3.90;;;;;;;;;;4949408;29;20212;-77
2022/01/30 02:55:01;;;;;;;7.90;4.00;;;;;;;;;;4955961;28;20208;-76
2022/01/30 02:57:29;;;;;;;7.87;4.10;;;;;;;;;;4956932;29;20240;-77
2022/01/30 02:59:55;;;;;;;10.60;3.97;;;;;;;;;;4957488;29;20192;-75
2022/01/30 03:02:22;;;;;;;11.93;4.10;;;;;;;;;;4941109;28;20181;-77
2022/01/30 03:04:48;;;;;;;12.30;4.47;;;;;;;;;;4955906;28;20291;-78
2022/01/30 03:07:14;;;;;;;14.80;4.20;;;;;;;;;;4952320;28;20205;-77
2022/01/30 03:09:51;;;;;;;10.10;3.90;;;;;;;;;;4952669;28;20205;-75
2022/01/30 03:12:17;;;;;;;16.23;4.00;;;;;;;;;;4956879;28;20248;-76
2022/01/30 03:14:44;;;;;;;11.97;3.80;;;;;;;;;;4953404;29;20193;-77
2022/01/30 03:17:11;;;;;;;12.40;3.90;;;;;;;;;;4939062;29;20243;-77
2022/01/30 03:19:37;;;;;;;13.37;3.80;;;;;;;;;;4952925;28;20201;-77
2022/01/30 03:22:03;;;;;;;13.77;3.83;;;;;;;;;;4955038;28;20280;-77
2022/01/30 03:24:35;;;;;;;12.80;4.30;;;;;;;;;;4955256;28;20260;-76
2022/01/30 03:27:11;;;;;;;13.57;3.80;;;;;;;;;;4937292;28;20181;-78
2022/01/30 03:30:02;;;;;;;12.30;3.60;;;;;;;;;;4953611;28;20189;-77
2022/01/30 03:33:00;;;;;;;10.17;3.33;;;;;;;;;;4968158;28;20303;-77
2022/01/30 03:35:26;;;;;;;14.10;3.83;;;;;;;;;;4945772;29;20182;-76
2022/01/30 03:37:53;;;;;;;13.57;4.20;;;;;;;;;;4955660;28;20205;-76
2022/01/30 03:40:19;;;;;;;13.80;3.70;;;;;;;;;;4953866;29;20251;-76
2022/01/30 03:42:46;;;;;;;11.50;3.37;;;;;;;;;;4953439;28;20189;-77
2022/01/30 03:45:15;;;;;;;14.10;3.53;;;;;;;;;;4954584;28;20209;-76
2022/01/30 03:47:43;;;;;;;11.80;3.60;;;;;;;;;;4956141;29;20953;-74
2022/01/30 03:50:12;;;;;;;9.83;3.47;;;;;;;;;;4954745;28;20190;-77
2022/01/30 03:52:39;;;;;;;14.50;4.73;;;;;;;;;;4955250;29;20239;-78
2022/01/30 03:55:05;;;;;;;13.07;3.70;;;;;;;;;;4954019;29;20210;-75
2022/01/30 03:57:31;;;;;;;11.77;3.23;;;;;;;;;;4954452;28;20186;-76
2022/01/30 03:59:57;;;;;;;14.17;3.60;;;;;;;;;;4950578;28;20622;-77
2022/01/30 04:02:23;;;;;;;11.10;3.30;;;;;;;;;;4943015;28;20658;-77
2022/01/30 04:04:50;;;;;;;9.47;3.53;;;;;;;;;;4949467;29;20638;-77
2022/01/30 04:07:17;;;;;;;12.67;4.20;;;;;;;;;;4935676;29;20229;-76
2022/01/30 04:09:55;;;;;;;12.17;3.67;;;;;;;;;;4940079;29;20239;-76
2022/01/30 04:12:38;;;;;;;14.03;3.70;;;;;;;;;;4954550;28;20614;-78
2022/01/30 04:15:23;;;;;;;17.47;3.90;;;;;;;;;;4951414;28;20236;-77
2022/01/30 04:18:08;;;;;;;12.30;3.67;;;;;;;;;;4952311;28;20197;-77
2022/01/30 04:20:38;;;;;;;11.90;3.47;;;;;;;;;;4951978;28;20191;-77
2022/01/30 04:23:33;;;;;;;12.80;3.77;;;;;;;;;;4950797;28;20284;-76
2022/01/30 04:26:19;;;;;;;16.47;3.60;;;;;;;;;;4954406;28;20541;-78
2022/01/30 04:29:05;;;;;;;16.87;3.40;;;;;;;;;;4959754;28;20251;-78
2022/01/30 04:31:50;;;;;;;10.43;3.03;;;;;;;;;;4956193;28;20193;-77
2022/01/30 04:34:30;;;;;;;14.33;4.00;;;;;;;;;;4952694;28;20211;-77
2022/01/30 04:37:16;;;;;;;15.43;3.13;;;;;;;;;;4955475;28;20184;-77
2022/01/30 04:59:19;;;;;;;18.27;3.30;;;;;;;;;;4979587;28;20184;-78
2022/01/30 05:01:56;;;;;;;13.83;3.37;;;;;;;;;;4940505;28;20208;-76
2022/01/30 05:07:28;;;;;;;11.13;3.00;;;;;;;;;;4954086;28;20197;-78
2022/01/30 05:10:12;;;;;;;13.70;2.90;;;;;;;;;;4953881;28;20185;-76
2022/01/30 05:12:54;;;;;;;12.33;2.70;;;;;;;;;;4950377;28;20240;-77
2022/01/30 05:15:39;;;;;;;21.33;3.27;;;;;;;;;;4924736;29;20225;-76
2022/01/30 05:18:05;;;;;;;14.50;2.70;;;;;;;;;;4950898;28;20189;-76
2022/01/30 05:21:04;;;;;;;10.93;2.70;;;;;;;;;;4952242;29;20307;-76
2022/01/30 05:23:54;;;;;;;6.93;2.30;;;;;;;;;;4933059;29;20204;-76
2022/01/30 05:26:32;;;;;;;12.93;2.73;;;;;;;;;;4952741;28;20193;-75
2022/01/30 05:29:18;;;;;;;11.27;2.80;;;;;;;;;;4951509;28;20197;-78
2022/01/30 05:31:52;;;;;;;13.73;2.60;;;;;;;;;;4951723;28;20193;-76
2022/01/30 05:34:39;;;;;;;14.83;3.30;;;;;;;;;;4954007;28;20197;-77
2022/01/30 05:37:29;;;;;;;11.87;2.60;;;;;;;;;;4946525;29;20188;-75
2022/01/30 05:40:14;;;;;;;13.57;2.83;;;;;;;;;;4954681;28;20185;-76
2022/01/30 05:42:51;;;;;;;16.53;2.90;;;;;;;;;;4954904;29;20193;-77
2022/01/30 05:45:46;;;;;;;11.27;2.77;;;;;;;;;;4950178;28;20180;-76
2022/01/30 05:48:17;;;;;;;13.37;2.70;;;;;;;;;;4953537;28;20185;-76
2022/01/30 05:51:04;;;;;;;13.00;3.10;;;;;;;;;;4951088;28;20253;-79
2022/01/30 05:53:41;;;;;;;12.70;2.63;;;;;;;;;;4954136;28;20251;-76
2022/01/30 05:56:13;;;;;;;11.97;3.03;;;;;;;;;;4951565;28;20241;-77
2022/01/30 05:58:40;;;;;;;11.27;2.97;;;;;;;;;;4938349;28;20237;-76
2022/01/30 06:01:38;;;;;;;15.70;3.03;;;;;;;;;;4937357;29;20284;-76
2022/01/30 06:04:23;;;;;;;18.03;3.70;;;;;;;;;;4947588;28;20205;-77
2022/01/30 06:06:51;;;;;;;13.00;2.73;;;;;;;;;;4968858;28;20313;-78
2022/01/30 06:11:50;;;;;;;13.37;3.13;;;;;;;;;;4953566;29;20188;-76
2022/01/30 06:14:17;;;;;;;13.23;2.63;;;;;;;;;;4940422;29;20252;-77
2022/01/30 06:16:43;;;;;;;12.97;2.80;;;;;;;;;;4957948;28;20192;-75
2022/01/30 06:19:29;;;;;;;14.17;3.00;;;;;;;;;;4954138;28;20185;-78
2022/01/30 06:22:14;;;;;;;14.23;2.67;;;;;;;;;;4956094;28;20173;-76
2022/01/30 06:25:13;;;;;;;11.43;2.50;;;;;;;;;;4945829;28;20276;-78
2022/01/30 06:28:02;;;;;;;12.20;2.90;;;;;;;;;;4958949;28;20188;-76
2022/01/30 06:30:47;;;;;;;9.37;2.80;;;;;;;;;;4961092;28;20203;-77
2022/01/30 06:33:32;;;;;;;14.97;3.10;;;;;;;;;;4944306;28;20252;-76
2022/01/30 06:36:11;;;;;;;10.43;2.63;;;;;;;;;;4957832;28;20240;-76
2022/01/30 06:38:43;;;;;;;11.30;2.70;;;;;;;;;;4947822;29;20197;-77
2022/01/30 06:41:21;;;;;;;12.67;2.33;;;;;;;;;;4956020;28;20177;-77
2022/01/30 06:44:17;;;;;;;13.43;2.60;;;;;;;;;;4953569;29;20221;-76
2022/01/30 06:47:02;;;;;;;13.27;2.60;;;;;;;;;;4954905;28;20188;-76
2022/01/30 06:49:46;;;;;;;11.93;2.53;;;;;;;;;;4954536;28;20688;-78
2022/01/30 06:52:26;;;;;;;15.57;2.57;;;;;;;;;;4952879;29;20209;-77
2022/01/30 06:55:11;;;;;;;15.23;2.73;;;;;;;;;;4957915;28;20673;-77
2022/01/30 06:58:13;;;;;;;15.37;3.00;;;;;;;;;;4934743;29;20609;-77
2022/01/30 07:00:58;;;;;;;12.53;2.80;;;;;;;;;;4947443;29;20212;-76
2022/01/30 07:03:43;;;;;;;18.93;4.20;;;;;;;;;;4955719;29;20228;-75
2022/01/30 07:06:30;;;;;;;16.07;4.73;;;;;;;;;;4954722;28;20646;-76
2022/01/30 07:08:56;;;;;;;18.03;5.57;;;;;;;;;;4952649;28;20193;-77
2022/01/30 07:11:22;;;;;;;19.30;5.93;;;;;;;;;;4956257;28;20645;-77
2022/01/30 07:13:48;;;;;;;23.13;8.40;;;;;;;;;;4954715;28;20224;-78
2022/01/30 07:16:15;;;;;;;22.63;8.87;;;;;;;;;;4954532;28;20305;-77
2022/01/30 07:18:42;;;;;;;24.43;9.13;;;;;;;;;;4952900;28;20636;-77
2022/01/30 07:21:10;;;;;;;20.13;7.87;;;;;;;;;;4946503;28;20220;-77
2022/01/30 07:23:36;;;;;;;23.77;8.53;;;;;;;;;;4952342;28;20718;-77
2022/01/30 07:26:03;;;;;;;21.53;7.70;;;;;;;;;;4954073;28;20189;-77
2022/01/30 07:28:30;;;;;;;18.53;6.70;;;;;;;;;;4953497;28;20188;-77
2022/01/30 07:30:56;;;;;;;19.27;6.20;;;;;;;;;;4953495;28;20185;-77
2022/01/30 07:33:23;;;;;;;12.97;5.00;;;;;;;;;;4952976;28;20209;-77
2022/01/30 07:35:52;;;;;;;13.67;5.13;;;;;;;;;;4954130;28;20697;-78
2022/01/30 07:38:20;;;;;;;12.00;4.20;;;;;;;;;;4953702;28;20932;-77
2022/01/30 07:40:46;;;;;;;11.90;3.60;;;;;;;;;;4953471;28;20181;-77
2022/01/30 07:43:13;;;;;;;11.87;3.10;;;;;;;;;;4956654;28;20259;-77
2022/01/30 07:45:47;;;;;;;14.60;3.57;;;;;;;;;;4955494;28;20275;-77
2022/01/30 07:48:15;;;;;;;16.67;3.30;;;;;;;;;;4954102;28;20260;-77
2022/01/30 07:50:42;;;;;;;8.07;2.93;;;;;;;;;;4948723;29;20300;-77
2022/01/30 07:53:08;;;;;;;12.73;2.90;;;;;;;;;;4948644;28;20295;-76
2022/01/30 07:55:34;;;;;;;14.57;3.33;;;;;;;;;;4951865;28;20197;-78
2022/01/30 07:58:00;;;;;;;12.50;3.10;;;;;;;;;;4953660;29;20181;-77
2022/01/30 08:00:26;;;;;;;13.43;3.13;;;;;;;;;;4951325;29;20173;-77
2022/01/30 08:02:53;;;;;;;9.23;3.00;;;;;;;;;;4952868;29;20193;-75
2022/01/30 08:05:19;;;;;;;14.97;3.07;;;;;;;;;;4952451;28;20212;-76
2022/01/30 08:07:45;;;;;;;15.40;3.13;;;;;;;;;;4945745;28;20208;-75
2022/01/30 08:10:11;;;;;;;11.87;3.30;;;;;;;;;;4954361;28;20553;-77
2022/01/30 08:12:38;;;;;;;13.77;2.77;;;;;;;;;;4953260;28;20205;-75
2022/01/30 08:15:05;;;;;;;13.47;3.00;;;;;;;;;;4953130;28;20283;-79
2022/01/30 08:17:33;;;;;;;9.77;3.03;;;;;;;;;;4952243;28;20189;-77
2022/01/30 08:19:59;;;;;;;13.33;2.57;;;;;;;;;;4951705;28;20268;-77
2022/01/30 08:22:29;;;;;;;14.50;3.00;;;;;;;;;;4952872;28;20178;-78
2022/01/30 08:24:55;;;;;;;11.33;2.73;;;;;;;;;;4951958;28;20205;-77
2022/01/30 08:27:21;;;;;;;9.23;2.63;;;;;;;;;;4950319;28;20193;-77
2022/01/30 08:29:47;;;;;;;13.73;2.87;;;;;;;;;;4955586;28;20196;-77
2022/01/30 08:32:14;;;;;;;11.87;3.10;;;;;;;;;;4951587;28;20185;-77
2022/01/30 08:34:40;;;;;;;13.57;2.50;;;;;;;;;;4951956;28;20271;-77
2022/01/30 08:37:07;;;;;;;15.97;3.50;;;;;;;;;;4952030;28;20200;-77
2022/01/30 08:39:33;;;;;;;12.70;2.60;;;;;;;;;;4952144;28;20216;-76
2022/01/30 08:42:00;;;;;;;11.57;2.87;;;;;;;;;;4921581;28;20676;-76
2022/01/30 08:44:26;;;;;;;13.67;3.03;;;;;;;;;;4948608;29;20216;-76
2022/01/30 08:46:52;;;;;;;8.53;2.57;;;;;;;;;;4952270;29;20558;-76
2022/01/30 08:49:18;;;;;;;10.33;2.50;;;;;;;;;;4953062;28;20193;-76
2022/01/30 08:51:44;;;;;;;10.43;2.53;;;;;;;;;;4952338;29;20603;-76
2022/01/30 08:54:10;;;;;;;10.30;2.67;;;;;;;;;;4951846;28;20684;-75
2022/01/30 08:56:37;;;;;;;9.27;2.80;;;;;;;;;;4953487;28;20197;-75
2022/01/30 08:59:03;;;;;;;10.27;2.77;;;;;;;;;;4953196;28;20165;-76
2022/01/30 09:01:32;;;;;;;10.00;2.57;;;;;;;;;;4953095;28;20185;-76
2022/01/30 09:04:03;;;;;;;11.33;2.63;;;;;;;;;;4952067;28;20213;-76
2022/01/30 09:06:30;;;;;;;8.43;2.57;;;;;;;;;;4951807;29;20189;-75
2022/01/30 09:08:57;;;;;;;9.17;2.50;;;;;;;;;;4952692;28;20185;-79
2022/01/30 09:11:23;;;;;;;12.40;2.60;;;;;;;;;;4949362;28;20267;-76
2022/01/30 09:13:49;;;;;;;12.77;2.70;;;;;;;;;;4950140;28;20593;-78
2022/01/30 09:16:15;;;;;;;14.47;3.00;;;;;;;;;;4945243;28;20188;-78
2022/01/30 09:18:41;;;;;;;15.93;2.90;;;;;;;;;;4955183;28;20180;-78
2022/01/30 09:21:09;;;;;;;10.27;2.50;;;;;;;;;;4962280;28;20196;-79
2022/01/30 09:23:36;;;;;;;12.27;2.60;;;;;;;;;;4941675;28;20298;-78
2022/01/30 09:26:02;;;;;;;14.57;3.00;;;;;;;;;;4952870;28;20215;-80
2022/01/30 09:28:29;;;;;;;11.47;2.77;;;;;;;;;;4952828;28;20275;-78
2022/01/30 09:30:55;;;;;;;13.33;3.10;;;;;;;;;;4941468;29;20196;-77
2022/01/30 09:33:21;;;;;;;10.00;2.40;;;;;;;;;;4953230;28;20205;-78
2022/01/30 09:35:47;;;;;;;12.37;2.93;;;;;;;;;;4956842;28;20237;-78
2022/01/30 09:38:14;;;;;;;14.77;3.07;;;;;;;;;;4962499;28;20176;-78
2022/01/30 09:40:41;;;;;;;10.73;2.30;;;;;;;;;;4954216;28;20420;-78
2022/01/30 09:43:07;;;;;;;13.70;2.73;;;;;;;;;;4958283;28;20189;-78
2022/01/30 09:45:33;;;;;;;11.57;2.70;;;;;;;;;;4962082;28;20191;-79
2022/01/30 09:48:00;;;;;;;11.33;2.60;;;;;;;;;;4960726;28;20189;-78
2022/01/30 09:50:27;;;;;;;15.67;2.87;;;;;;;;;;4962093;28;20191;-78
2022/01/30 09:52:53;;;;;;;10.83;2.57;;;;;;;;;;4960889;28;20213;-78
2022/01/30 09:55:20;;;;;;;9.80;2.27;;;;;;;;;;4957771;28;20297;-78
2022/01/30 09:57:47;;;;;;;7.93;2.20;;;;;;;;;;4958498;28;20178;-78
2022/01/30 10:00:13;;;;;;;12.00;2.43;;;;;;;;;;4959399;28;20696;-78
2022/01/30 10:02:43;;;;;;;10.10;2.10;;;;;;;;;;4958882;28;20276;-80
2022/01/30 10:05:11;;;;;;;11.63;2.60;;;;;;;;;;4958051;28;20213;-77
2022/01/30 10:07:38;;;;;;;9.53;2.60;;;;;;;;;;4957417;29;20259;-77
2022/01/30 10:10:09;;;;;;;9.53;2.20;;;;;;;;;;4958730;28;20266;-77
2022/01/30 10:12:35;;;;;;;10.83;2.37;;;;;;;;;;4957718;28;20216;-77
2022/01/30 10:15:01;;;;;;;9.10;2.43;;;;;;;;;;4957996;28;20204;-78
2022/01/30 10:17:35;;;;;;;11.53;2.20;;;;;;;;;;4956736;28;20178;-78
2022/01/30 10:20:12;;;;;;;10.17;2.37;;;;;;;;;;4949119;29;20169;-78
2022/01/30 10:22:48;;;;;;;8.87;2.60;;;;;;;;;;4953713;28;20212;-79
2022/01/30 10:25:21;;;;;;;9.40;2.30;;;;;;;;;;4957103;28;20207;-78
2022/01/30 10:27:47;;;;;;;7.50;1.97;;;;;;;;;;4957484;28;20691;-78
2022/01/30 10:30:19;;;;;;;10.67;2.70;;;;;;;;;;4937099;29;20196;-78
2022/01/30 10:32:53;;;;;;;9.73;2.57;;;;;;;;;;4955452;28;20205;-78
2022/01/30 10:35:19;;;;;;;10.30;2.60;;;;;;;;;;4956203;28;20248;-78
2022/01/30 10:37:46;;;;;;;9.70;2.10;;;;;;;;;;4956060;29;20189;-78
2022/01/30 10:40:17;;;;;;;7.40;2.23;;;;;;;;;;4957458;28;20196;-78
2022/01/30 10:42:45;;;;;;;8.30;2.30;;;;;;;;;;4955417;28;20185;-78
2022/01/30 10:45:14;;;;;;;9.77;2.30;;;;;;;;;;4957124;28;20226;-79
2022/01/30 10:47:41;;;;;;;9.43;2.17;;;;;;;;;;4957361;29;20213;-78
2022/01/30 10:50:08;;;;;;;6.00;2.30;;;;;;;;;;4957391;28;20172;-80
2022/01/30 10:52:34;;;;;;;9.83;3.00;;;;;;;;;;4955152;28;20201;-78
2022/01/30 10:55:05;;;;;;;8.30;2.20;;;;;;;;;;4956324;29;20212;-77
2022/01/30 10:57:39;;;;;;;11.50;2.53;;;;;;;;;;4958568;28;20189;-79
2022/01/30 11:00:06;;;;;;;10.07;2.47;;;;;;;;;;4956557;28;20228;-77
2022/01/30 11:02:36;;;;;;;9.83;2.63;;;;;;;;;;4933143;29;20184;-77
2022/01/30 11:05:06;;;;;;;9.03;2.63;;;;;;;;;;4964404;28;20205;-77
2022/01/30 11:07:35;;;;;;;9.17;2.37;;;;;;;;;;4957373;28;20203;-77
2022/01/30 11:10:19;;;;;;;8.77;2.30;;;;;;;;;;4958593;28;20181;-76
2022/01/30 11:15:23;;;;;;;10.13;2.27;;;;;;;;;;4960124;29;20580;-76
2022/01/30 11:17:50;;;;;;;11.73;2.43;;;;;;;;;;4961289;28;20582;-76
2022/01/30 11:20:17;;;;;;;7.07;2.10;;;;;;;;;;4955969;28;20173;-79
2022/01/30 11:22:45;;;;;;;8.17;1.90;;;;;;;;;;4959814;28;20215;-77
2022/01/30 11:25:12;;;;;;;10.17;2.40;;;;;;;;;;4955443;28;20332;-76
2022/01/30 11:27:43;;;;;;;12.73;2.67;;;;;;;;;;4956054;28;20193;-81
2022/01/30 11:30:11;;;;;;;7.80;2.20;;;;;;;;;;4955406;28;20728;-77
2022/01/30 11:32:39;;;;;;;10.97;2.67;;;;;;;;;;4954290;29;20208;-79
2022/01/30 11:35:05;;;;;;;7.97;2.23;;;;;;;;;;4959308;28;20221;-77
2022/01/30 11:37:33;;;;;;;9.17;2.40;;;;;;;;;;4958758;28;20181;-78
2022/01/30 11:40:00;;;;;;;12.33;2.60;;;;;;;;;;4955214;28;20181;-78
2022/01/30 11:42:27;;;;;;;7.50;2.63;;;;;;;;;;4960260;28;20212;-79
2022/01/30 11:45:05;;;;;;;10.90;2.60;;;;;;;;;;4959661;28;20205;-78
2022/01/30 11:47:51;;;;;;;12.87;2.87;;;;;;;;;;4958506;28;20196;-78
2022/01/30 11:50:37;;;;;;;14.73;6.37;;;;;;;;;;4959294;28;20185;-78
2022/01/30 11:53:05;;;;;;;9.93;2.87;;;;;;;;;;4957220;28;20205;-78
2022/01/30 11:55:38;;;;;;;9.27;2.60;;;;;;;;;;4954409;28;20205;-78
2022/01/30 11:58:05;;;;;;;14.00;2.97;;;;;;;;;;4955358;28;20217;-79
2022/01/30 12:00:38;;;;;;;8.60;2.57;;;;;;;;;;4957180;28;20227;-78
2022/01/30 12:03:23;;;;;;;9.30;2.53;;;;;;;;;;4955805;28;20192;-77
2022/01/30 12:05:49;;;;;;;11.40;3.00;;;;;;;;;;4953944;28;20185;-79
2022/01/30 12:08:34;;;;;;;8.80;3.30;;;;;;;;;;4946598;28;20213;-77
2022/01/30 12:11:00;;;;;;;12.20;3.33;;;;;;;;;;4960781;28;20188;-79
2022/01/30 12:13:43;;;;;;;12.03;3.77;;;;;;;;;;4959451;28;20299;-78
2022/01/30 12:16:29;;;;;;;10.77;3.50;;;;;;;;;;4959114;28;20193;-78
2022/01/30 12:18:55;;;;;;;8.93;2.90;;;;;;;;;;4959698;28;20184;-78
2022/01/30 12:21:26;;;;;;;9.90;3.07;;;;;;;;;;4960102;28;20664;-79
2022/01/30 12:23:53;;;;;;;11.10;3.07;;;;;;;;;;4958809;28;20292;-78
2022/01/30 12:26:20;;;;;;;10.37;3.13;;;;;;;;;;4960954;28;20695;-79
2022/01/30 12:28:51;;;;;;;9.40;2.43;;;;;;;;;;4953399;28;20177;-77
2022/01/30 12:31:32;;;;;;;10.10;2.93;;;;;;;;;;4955923;28;20189;-75
2022/01/30 12:34:08;;;;;;;10.07;3.17;;;;;;;;;;4960882;28;20584;-75
2022/01/30 12:36:39;;;;;;;12.90;2.90;;;;;;;;;;4960436;28;20191;-77
2022/01/30 12:39:05;;;;;;;12.97;3.00;;;;;;;;;;4959794;28;20183;-76
2022/01/30 12:41:32;;;;;;;11.90;2.70;;;;;;;;;;4965487;28;20194;-77
2022/01/30 12:44:00;;;;;;;9.87;2.80;;;;;;;;;;4960255;28;20205;-76
2022/01/30 12:46:28;;;;;;;11.10;2.67;;;;;;;;;;4961437;28;20212;-77
2022/01/30 12:49:03;;;;;;;12.73;3.30;;;;;;;;;;4964286;28;20209;-77
2022/01/30 12:51:30;;;;;;;7.47;2.00;;;;;;;;;;4964660;28;20203;-77
2022/01/30 12:53:57;;;;;;;9.47;2.80;;;;;;;;;;4963002;28;20208;-79
2022/01/30 12:56:26;;;;;;;13.83;2.70;;;;;;;;;;4961000;28;20196;-76
2022/01/30 12:58:55;;;;;;;11.73;2.90;;;;;;;;;;4958728;28;20186;-78
2022/01/30 13:01:24;;;;;;;9.00;2.77;;;;;;;;;;4960700;28;20199;-77
2022/01/30 13:04:00;;;;;;;10.60;2.90;;;;;;;;;;4969015;28;20831;-80
2022/01/30 13:06:31;;;;;;;13.60;3.58;;;;;;;;;;4965433;28;20561;-80
2022/01/30 13:08:57;;;;;;;12.07;3.47;;;;;;;;;;4969206;28;20447;-78
2022/01/30 13:11:24;;;;;;;13.00;3.13;;;;;;;;;;4970200;28;21393;-80
2022/01/30 13:13:57;;;;;;;8.67;2.67;;;;;;;;;;4957737;28;20710;-78
2022/01/30 13:16:25;;;;;;;10.57;2.60;;;;;;;;;;4963621;28;20185;-78
2022/01/30 13:18:51;;;;;;;9.80;2.63;;;;;;;;;;4960959;28;20185;-79
2022/01/30 13:21:22;;;;;;;11.63;2.73;;;;;;;;;;4965897;28;20239;-77
2022/01/30 13:23:48;;;;;;;10.67;2.80;;;;;;;;;;4965297;28;20208;-79
2022/01/30 13:26:33;;;;;;;13.27;2.77;;;;;;;;;;4961122;28;20220;-78
2022/01/30 13:29:00;;;;;;;9.40;2.47;;;;;;;;;;4962967;28;20256;-79
2022/01/30 13:31:26;;;;;;;13.83;3.07;;;;;;;;;;4968055;28;20634;-78
2022/01/30 13:34:10;;;;;;;10.27;2.90;;;;;;;;;;4970710;28;20705;-78
2022/01/30 13:36:37;;;;;;;7.93;2.30;;;;;;;;;;4959940;28;20220;-79
2022/01/30 13:39:08;;;;;;;10.10;2.83;;;;;;;;;;4965702;28;20204;-79
2022/01/30 13:41:44;;;;;;;10.10;2.70;;;;;;;;;;4970126;28;20185;-80
2022/01/30 13:44:24;;;;;;;10.17;2.97;;;;;;;;;;4958373;28;20291;-75
2022/01/30 13:47:03;;;;;;;11.53;3.30;;;;;;;;;;4968042;28;20188;-77
2022/01/30 13:49:30;;;;;;;8.67;2.90;;;;;;;;;;4963051;28;20197;-75
2022/01/30 13:52:12;;;;;;;10.43;2.40;;;;;;;;;;4958502;28;20546;-77
2022/01/30 13:54:38;;;;;;;8.17;2.80;;;;;;;;;;4965157;28;20208;-76
2022/01/30 13:57:05;;;;;;;9.67;3.00;;;;;;;;;;4959333;28;20232;-79
2022/01/30 13:59:32;;;;;;;10.27;2.60;;;;;;;;;;4959455;28;20427;-76
2022/01/30 14:02:02;;;;;;;8.57;2.73;;;;;;;;;;4957528;28;20192;-77
2022/01/30 14:04:29;;;;;;;9.03;2.90;;;;;;;;;;4955586;28;20221;-78
2022/01/30 14:06:59;;;;;;;9.07;2.33;;;;;;;;;;4955908;28;20217;-76
2022/01/30 14:09:35;;;;;;;11.33;2.60;;;;;;;;;;4958413;28;20197;-77
2022/01/30 14:12:03;;;;;;;8.03;2.27;;;;;;;;;;4957612;28;20189;-77
2022/01/30 14:14:29;;;;;;;8.73;2.30;;;;;;;;;;4955371;28;20232;-77
2022/01/30 14:17:01;;;;;;;10.17;2.70;;;;;;;;;;4953051;28;20185;-80
2022/01/30 14:19:35;;;;;;;11.13;2.50;;;;;;;;;;4956180;28;20193;-81
2022/01/30 14:22:34;;;;;;;11.23;2.17;;;;;;;;;;4952588;28;20272;-80
2022/01/30 14:25:02;;;;;;;12.67;3.33;;;;;;;;;;4948868;28;20221;-80
2022/01/30 14:27:33;;;;;;;11.47;2.87;;;;;;;;;;4957185;28;20582;-80
2022/01/30 14:30:04;;;;;;;11.30;2.40;;;;;;;;;;4958305;28;20249;-80
2022/01/30 14:32:33;;;;;;;9.77;2.40;;;;;;;;;;4951002;28;20208;-80
2022/01/30 14:34:59;;;;;;;12.03;2.73;;;;;;;;;;4953890;28;20228;-80
2022/01/30 14:37:25;;;;;;;9.30;2.53;;;;;;;;;;4955917;28;20205;-80
2022/01/30 14:39:56;;;;;;;11.47;2.50;;;;;;;;;;4961085;28;20172;-80
2022/01/30 14:42:22;;;;;;;9.77;2.70;;;;;;;;;;4976367;28;20676;-80
2022/01/30 14:44:48;;;;;;;10.93;2.40;;;;;;;;;;4958946;28;20602;-80
2022/01/30 14:47:14;;;;;;;7.30;2.40;;;;;;;;;;4944854;29;20712;-80
2022/01/30 14:49:41;;;;;;;12.70;2.83;;;;;;;;;;4945566;29;20177;-80
2022/01/30 14:52:08;;;;;;;7.37;2.07;;;;;;;;;;4958891;28;20649;-80
2022/01/30 14:54:35;;;;;;;6.60;2.20;;;;;;;;;;4957145;28;20213;-80
2022/01/30 14:57:03;;;;;;;12.23;2.07;;;;;;;;;;4951868;28;20316;-80
2022/01/30 14:59:29;;;;;;;8.27;3.00;;;;;;;;;;4955013;29;20851;-80
2022/01/30 15:01:55;;;;;;;14.07;4.90;;;;;;;;;;4954666;28;20637;-80
2022/01/30 15:04:22;;;;;;;11.10;3.60;;;;;;;;;;4953028;28;20734;-80
2022/01/30 15:06:48;;;;;;;11.27;4.17;;;;;;;;;;4959110;28;20204;-80
2022/01/30 15:09:14;;;;;;;9.97;4.30;;;;;;;;;;4954826;28;20181;-80
2022/01/30 15:11:40;;;;;;;14.07;5.50;;;;;;;;;;4940654;29;20224;-80
2022/01/30 15:14:09;;;;;;;13.43;4.30;;;;;;;;;;4950316;29;20994;-80
2022/01/30 15:16:49;;;;;;;11.80;3.70;;;;;;;;;;4944023;28;20224;-81
2022/01/30 15:19:15;;;;;;;10.63;3.00;;;;;;;;;;4955726;28;20185;-80
2022/01/30 15:21:42;;;;;;;8.23;3.03;;;;;;;;;;4955046;28;20719;-80
2022/01/30 15:24:09;;;;;;;15.13;4.30;;;;;;;;;;4951224;28;20219;-80
2022/01/30 15:26:36;;;;;;;14.53;4.43;;;;;;;;;;4955092;28;20258;-80
2022/01/30 15:29:04;;;;;;;12.30;3.93;;;;;;;;;;4956325;28;20938;-80
2022/01/30 15:31:30;;;;;;;13.20;4.87;;;;;;;;;;4960294;28;20194;-80
2022/01/30 15:33:58;;;;;;;10.93;4.03;;;;;;;;;;4956115;28;20704;-80
2022/01/30 15:36:24;;;;;;;13.00;4.47;;;;;;;;;;4952207;28;20659;-80
2022/01/30 15:38:50;;;;;;;9.93;3.90;;;;;;;;;;4954283;29;20185;-80
2022/01/30 15:41:17;;;;;;;14.87;3.70;;;;;;;;;;4945061;28;20178;-80
2022/01/30 15:43:43;;;;;;;12.77;4.67;;;;;;;;;;4943509;28;20223;-80
2022/01/30 15:49:01;;;;;;;11.63;3.90;;;;;;;;;;4956539;28;20173;-80
2022/01/30 15:51:28;;;;;;;14.13;4.10;;;;;;;;;;4956942;28;20888;-80
2022/01/30 15:53:55;;;;;;;16.73;4.40;;;;;;;;;;4955781;28;20297;-80
2022/01/30 15:56:22;;;;;;;16.03;5.30;;;;;;;;;;4956098;28;20559;-80
2022/01/30 15:58:48;;;;;;;15.97;4.40;;;;;;;;;;4955017;29;20197;-80